Home   Weather   USA   Effingham   Past weeks
Flag for USA

Past Weather in Effingham, Illinois, USA — Yesterday and Last 2 Weeks

Currently: 58 °F. Sunny. (Weather station: Effingham County Memorial Airport, USA). See more current weather

Past Weather in Effingham — Graph

°F

Effingham Temperature Yesterday

Maximum temperature yesterday: 50 °F (at 3:15 pm)
Minimum temperature yesterday: 19 °F (at 4:55 am)
Average temperature yesterday: 34 °F

High & Low Weather Summary for the Past Weeks

 TemperatureHumidityPressure
High65 °F (Feb 9, 1:35 pm)99% (Feb 6, 8:35 pm)30.36 "Hg (Feb 6, 8:35 pm)
Low10 °F (Feb 17, 6:55 am)34% (Feb 20, 1:55 pm)29.78 "Hg (Feb 12, 2:35 pm)
Average38 °F72%30.09 "Hg
* Reported Feb 5 3:15 pm — Feb 20 3:15 pm, Effingham. Weather by CustomWeather, © 2024

Note: Actual official high and low records may vary slightly from our data, if they occured in-between our weather recording intervals... More about our weather records

Effingham Weather History for the Previous 24 Hours

Scroll right to see more
 ConditionsComfort  
Time TempWeatherWind HumidityBarometerVisibility
3:15 pm
Tue, Feb 20
59 °FSunny.8 mph37%30.17 "Hg10 mi
2:55 pm59 °FSunny.10 mph36%30.17 "Hg10 mi
2:35 pm60 °FSunny.10 mph35%30.18 "Hg10 mi
1:55 pm59 °FSunny.15 mph34%30.18 "Hg10 mi
1:35 pm59 °FSunny.12 mph35%30.19 "Hg10 mi
1:15 pm59 °FSunny.10 mph35%30.20 "Hg10 mi
12:55 pm58 °FSunny.9 mph35%30.21 "Hg10 mi
12:35 pm58 °FSunny.10 mph36%30.22 "Hg10 mi
11:55 am57 °FSunny.8 mph40%30.23 "Hg10 mi
11:35 am56 °FSunny.12 mph37%30.23 "Hg10 mi
11:15 am55 °FSunny.8 mph41%30.24 "Hg10 mi
10:55 am54 °FSunny.8 mph44%30.24 "Hg10 mi
10:35 am52 °FSunny.6 mph46%30.24 "Hg10 mi
10:15 am50 °FSunny.7 mph50%30.25 "Hg10 mi
9:55 am49 °FSunny.6 mph52%30.25 "Hg10 mi
9:35 am48 °FSunny.5 mph55%30.25 "Hg10 mi
9:15 am45 °FSunny.5 mph58%30.25 "Hg10 mi
8:55 am42 °FSunny.5 mph63%30.24 "Hg10 mi
8:35 am40 °FSunny.5 mph66%30.24 "Hg10 mi
7:55 am35 °FSunny.3 mph78%30.23 "Hg10 mi
7:35 am32 °FSunny.3 mph83%30.23 "Hg10 mi
6:55 am28 °FSunny.No wind90%30.22 "Hg10 mi
6:35 am30 °FClear.3 mph84%30.21 "Hg10 mi
5:55 am30 °FClear.5 mph82%30.21 "Hg10 mi
5:35 am29 °FClear.6 mph88%30.20 "Hg10 mi
5:15 am27 °FClear.6 mph92%30.19 "Hg10 mi
4:55 am27 °FClear.5 mph94%30.19 "Hg10 mi
4:35 am27 °FClear.No wind95%30.19 "Hg10 mi
4:15 am27 °FClear.No wind93%30.19 "Hg10 mi
3:55 am26 °FClear.No wind93%30.19 "Hg10 mi
3:35 am29 °FClear.3 mph88%30.19 "Hg10 mi
3:15 am30 °FClear.3 mph85%30.19 "Hg10 mi
2:55 am32 °FClear.5 mph80%30.19 "Hg10 mi
2:35 am31 °FClear.5 mph81%30.19 "Hg10 mi
2:15 am30 °FClear.5 mph85%30.19 "Hg10 mi
1:55 am31 °FClear.5 mph82%30.20 "Hg10 mi
1:35 am31 °FClear.5 mph84%30.20 "Hg10 mi
12:55 am29 °FClear.5 mph86%30.20 "Hg10 mi
12:35 am28 °FClear.5 mph92%30.20 "Hg10 mi
12:15 am29 °FClear.No wind93%30.20 "Hg10 mi
11:55 pm
Mon, Feb 19
29 °FClear.No wind89%30.20 "Hg10 mi
11:35 pm29 °FClear.No wind89%30.20 "Hg10 mi
11:15 pm32 °FClear.No wind84%30.20 "Hg10 mi
10:55 pm32 °FClear.No wind83%30.20 "Hg10 mi
10:35 pm32 °FClear.3 mph81%30.19 "Hg10 mi
10:15 pm32 °FClear.3 mph82%30.19 "Hg10 mi
9:55 pm34 °FClear.5 mph77%30.18 "Hg10 mi
9:35 pm34 °FClear.5 mph78%30.18 "Hg10 mi
9:15 pm33 °FClear.6 mph84%30.17 "Hg10 mi
8:55 pm32 °FClear.3 mph87%30.17 "Hg10 mi
8:35 pm32 °FClear.3 mph87%30.17 "Hg10 mi
7:35 pm34 °FClear.No wind83%30.16 "Hg10 mi
7:15 pm35 °FClear.No wind81%30.16 "Hg10 mi
6:55 pm37 °FClear.No wind74%30.16 "Hg10 mi
5:35 pm44 °FClear.3 mph64%30.14 "Hg10 mi
5:15 pm46 °FSunny.5 mph57%30.14 "Hg10 mi
4:55 pm49 °FSunny.6 mph49%30.13 "Hg10 mi
4:35 pm49 °FSunny.9 mph48%30.14 "Hg10 mi
4:15 pm50 °FSunny.7 mph46%30.14 "Hg10 mi
Weather by CustomWeather, © 2024

See weather overview